createdAt,value
2023-07-04T00:00:17.244Z,20.70
2023-07-04T00:03:41.916Z,17.90
2023-07-04T00:06:45.190Z,17.70
2023-07-04T00:09:48.378Z,17.30
2023-07-04T00:12:51.302Z,19.60
2023-07-04T00:15:57.280Z,15.80
2023-07-04T00:19:00.380Z,18.40
2023-07-04T00:22:05.379Z,15.70
2023-07-04T00:25:09.139Z,13.90
2023-07-04T00:28:12.056Z,15.00
2023-07-04T00:31:21.364Z,16.00
2023-07-04T00:34:25.039Z,14.60
2023-07-04T00:37:30.428Z,19.30
2023-07-04T00:40:33.448Z,17.20
2023-07-04T00:43:47.979Z,17.80
2023-07-04T00:46:57.821Z,14.20
2023-07-04T00:50:08.722Z,17.80
2023-07-04T00:53:13.924Z,14.90
2023-07-04T00:56:17.308Z,15.20
2023-07-04T00:59:21.520Z,13.60
2023-07-04T01:02:27.514Z,15.30
2023-07-04T01:05:51.663Z,14.70
2023-07-04T01:09:02.495Z,19.20
2023-07-04T01:12:06.618Z,14.90
2023-07-04T01:15:10.648Z,16.70
2023-07-04T01:18:15.456Z,16.10
2023-07-04T01:21:23.528Z,15.50
2023-07-04T01:24:40.383Z,17.50
2023-07-04T01:27:45.222Z,15.90
2023-07-04T01:30:49.023Z,17.60
2023-07-04T01:33:53.276Z,19.30
2023-07-04T01:36:56.415Z,16.50
2023-07-04T01:40:01.560Z,13.70
2023-07-04T01:43:07.171Z,15.10
2023-07-04T01:46:10.616Z,18.40
2023-07-04T01:49:14.002Z,20.10
2023-07-04T01:52:17.027Z,17.00
2023-07-04T01:55:20.227Z,18.80
2023-07-04T01:58:23.267Z,15.40
2023-07-04T02:01:26.408Z,17.30
2023-07-04T02:04:29.415Z,22.50
2023-07-04T02:07:32.750Z,14.90
2023-07-04T02:10:35.872Z,20.30
2023-07-04T02:13:39.782Z,17.80
2023-07-04T02:16:42.795Z,19.10
2023-07-04T02:19:46.039Z,18.40
2023-07-04T02:22:49.069Z,16.10
2023-07-04T02:25:54.227Z,19.20
2023-07-04T02:28:57.140Z,17.10
2023-07-04T02:32:00.115Z,16.90
2023-07-04T02:35:03.895Z,17.00
2023-07-04T02:38:07.263Z,17.10
2023-07-04T02:41:11.237Z,21.90
2023-07-04T02:44:14.324Z,19.30
2023-07-04T02:47:19.615Z,16.80
2023-07-04T02:50:22.921Z,21.90
2023-07-04T02:53:26.037Z,15.90
2023-07-04T02:56:29.739Z,18.10
2023-07-04T02:59:32.823Z,17.80
2023-07-04T03:02:36.783Z,22.10
2023-07-04T03:05:48.646Z,18.50
2023-07-04T03:08:53.084Z,19.00
2023-07-04T03:11:56.479Z,17.80
2023-07-04T03:14:59.862Z,19.00
2023-07-04T03:18:06.193Z,17.60
2023-07-04T03:21:12.226Z,17.90
2023-07-04T03:24:15.265Z,18.10
2023-07-04T03:27:18.382Z,17.70
2023-07-04T03:30:21.613Z,18.60
2023-07-04T03:33:26.644Z,18.70
2023-07-04T03:36:29.734Z,21.80
2023-07-04T03:39:32.696Z,18.30
2023-07-04T03:42:37.265Z,20.00
2023-07-04T03:45:40.287Z,17.20
2023-07-04T03:48:44.187Z,19.10
2023-07-04T03:51:48.014Z,20.30
2023-07-04T03:54:51.274Z,20.80
2023-07-04T03:57:54.243Z,18.00
2023-07-04T04:00:57.215Z,16.00
2023-07-04T04:04:00.308Z,19.30
2023-07-04T04:07:03.771Z,22.30
2023-07-04T04:10:07.458Z,15.90
2023-07-04T04:13:11.280Z,17.90
2023-07-04T04:16:14.463Z,18.70
2023-07-04T04:19:17.537Z,26.10
2023-07-04T04:22:20.550Z,18.40
2023-07-04T04:25:23.494Z,21.80
2023-07-04T04:28:26.402Z,21.90
2023-07-04T04:31:30.240Z,17.10
2023-07-04T04:34:33.287Z,21.20
2023-07-04T04:37:36.485Z,22.30
2023-07-04T04:40:39.850Z,22.80
2023-07-04T04:43:42.828Z,20.30
2023-07-04T04:46:50.085Z,19.00
2023-07-04T04:49:53.195Z,19.10
2023-07-04T04:52:57.256Z,16.10
2023-07-04T04:56:01.632Z,20.80
2023-07-04T04:59:04.544Z,17.10
2023-07-04T05:02:07.765Z,20.60
2023-07-04T05:05:10.823Z,29.50
2023-07-04T05:08:13.977Z,27.90
2023-07-04T05:11:17.947Z,35.50
2023-07-04T05:14:21.417Z,36.80
2023-07-04T05:17:25.334Z,33.30
2023-07-04T05:20:28.588Z,24.20
2023-07-04T05:23:32.699Z,24.60
2023-07-04T05:26:36.436Z,22.60
2023-07-04T05:29:40.064Z,21.30
2023-07-04T05:32:45.972Z,22.10
2023-07-04T05:35:49.412Z,23.40
2023-07-04T05:39:02.310Z,19.10
2023-07-04T05:42:08.198Z,18.60
2023-07-04T05:45:11.436Z,16.20
2023-07-04T05:48:14.511Z,17.60
2023-07-04T05:51:19.894Z,23.30
2023-07-04T05:54:22.872Z,18.30
2023-07-04T05:57:31.649Z,16.70
2023-07-04T06:00:36.145Z,18.10
2023-07-04T06:03:40.565Z,19.90
2023-07-04T06:06:49.668Z,16.30
2023-07-04T06:09:52.683Z,16.40
2023-07-04T06:12:55.658Z,13.30
2023-07-04T06:16:00.405Z,12.80
2023-07-04T06:19:03.759Z,14.80
2023-07-04T06:22:08.531Z,16.40
2023-07-04T06:25:11.433Z,15.60
2023-07-04T06:28:14.413Z,15.30
2023-07-04T06:31:18.465Z,11.60
2023-07-04T06:34:21.485Z,12.90
2023-07-04T06:37:24.451Z,12.60
2023-07-04T06:40:27.440Z,16.30
2023-07-04T06:43:32.829Z,12.50
2023-07-04T06:46:35.837Z,13.50
2023-07-04T06:49:38.842Z,16.70
2023-07-04T06:52:41.783Z,13.70
2023-07-04T06:55:44.958Z,14.80
2023-07-04T06:58:51.737Z,14.60
2023-07-04T07:01:54.985Z,19.00
2023-07-04T07:04:58.146Z,15.50
2023-07-04T07:08:01.128Z,13.20
2023-07-04T07:11:11.229Z,13.70
2023-07-04T07:14:14.382Z,13.60
2023-07-04T07:17:17.745Z,14.30
2023-07-04T07:20:20.785Z,14.00
2023-07-04T07:23:23.807Z,15.20
2023-07-04T07:26:29.542Z,12.90
2023-07-04T07:29:33.358Z,18.00
2023-07-04T07:32:36.480Z,16.80
2023-07-04T07:35:39.686Z,13.80
2023-07-04T07:38:43.136Z,17.50
2023-07-04T07:41:48.739Z,14.50
2023-07-04T07:44:51.871Z,11.00
2023-07-04T07:47:57.293Z,12.50
2023-07-04T07:51:00.556Z,11.70
2023-07-04T07:54:04.185Z,13.30
2023-07-04T07:57:07.880Z,14.50
2023-07-04T08:00:13.583Z,12.10
2023-07-04T08:03:16.720Z,14.00
2023-07-04T08:06:36.966Z,12.10
2023-07-04T08:09:40.200Z,11.90
2023-07-04T08:12:43.305Z,10.90
2023-07-04T08:15:56.130Z,8.80
2023-07-04T08:19:00.766Z,9.40
2023-07-04T08:22:03.918Z,9.20
2023-07-04T08:25:07.145Z,9.20
2023-07-04T08:28:10.243Z,10.60
2023-07-04T08:31:13.591Z,9.10
2023-07-04T08:34:16.750Z,11.60
2023-07-04T08:37:20.090Z,6.60
2023-07-04T08:40:30.528Z,10.30
2023-07-04T08:43:46.316Z,8.00
2023-07-04T08:46:54.637Z,12.90
2023-07-04T08:50:11.019Z,13.90
2023-07-04T08:53:24.017Z,7.90
2023-07-04T08:56:37.535Z,7.70
2023-07-04T08:59:48.166Z,8.70
2023-07-04T09:03:14.191Z,6.60
2023-07-04T09:06:31.880Z,6.00
2023-07-04T09:09:55.666Z,7.20
2023-07-04T09:13:01.416Z,5.90
2023-07-04T09:16:19.773Z,7.40
2023-07-04T09:19:23.082Z,9.70
2023-07-04T09:22:26.213Z,7.60
2023-07-04T09:25:29.746Z,8.10
2023-07-04T09:28:37.686Z,7.10
2023-07-04T09:31:42.558Z,11.90
2023-07-04T09:35:12.471Z,7.70
2023-07-04T09:38:15.799Z,8.10
2023-07-04T09:41:19.832Z,10.20
2023-07-04T09:44:37.428Z,10.30
2023-07-04T09:47:46.093Z,9.90
2023-07-04T09:50:49.174Z,8.60
2023-07-04T09:54:08.696Z,9.70
2023-07-04T09:57:24.113Z,11.80
2023-07-04T10:00:28.015Z,8.60
2023-07-04T10:03:31.213Z,8.60
2023-07-04T10:06:36.524Z,9.50
2023-07-04T10:09:57.511Z,7.70
2023-07-04T10:13:01.122Z,6.70
2023-07-04T10:16:19.443Z,8.20
2023-07-04T10:19:24.026Z,7.20
2023-07-04T10:22:36.442Z,6.80
2023-07-04T10:25:39.647Z,9.00
2023-07-04T10:28:44.116Z,6.80
2023-07-04T10:31:49.207Z,11.10
2023-07-04T10:34:53.388Z,8.10
2023-07-04T10:38:04.582Z,5.70
2023-07-04T10:41:36.103Z,9.00
2023-07-04T10:44:42.374Z,5.00
2023-07-04T10:47:48.904Z,5.50
2023-07-04T10:51:02.082Z,14.10
2023-07-04T10:54:09.183Z,16.80
2023-07-04T10:57:57.828Z,5.40
2023-07-04T11:01:08.477Z,6.20
2023-07-04T11:04:26.499Z,5.90
2023-07-04T11:07:30.130Z,7.40
2023-07-04T11:10:39.330Z,7.50
2023-07-04T11:13:54.016Z,4.80
2023-07-04T11:17:05.247Z,5.50
2023-07-04T11:20:16.188Z,6.00
2023-07-04T11:23:22.169Z,4.30
2023-07-04T11:26:51.308Z,5.50
2023-07-04T11:29:59.820Z,4.40
2023-07-04T11:33:03.420Z,4.00
2023-07-04T11:36:15.591Z,3.50
2023-07-04T11:39:38.629Z,10.90
2023-07-04T11:42:45.717Z,1.90
2023-07-04T11:45:50.232Z,2.40
2023-07-04T11:48:55.555Z,2.80
2023-07-04T11:52:20.651Z,2.60
2023-07-04T11:55:33.706Z,2.10
2023-07-04T11:58:37.038Z,2.70
2023-07-04T12:02:04.864Z,3.80
2023-07-04T12:05:32.523Z,3.40
2023-07-04T12:08:51.609Z,5.30
2023-07-04T12:11:57.481Z,4.00
2023-07-04T12:19:04.600Z,3.00
2023-07-04T12:22:06.860Z,3.80
2023-07-04T12:25:19.544Z,3.30
2023-07-04T12:28:27.504Z,3.60
2023-07-04T12:35:10.856Z,3.40
2023-07-04T12:37:58.859Z,2.20
2023-07-04T12:41:04.776Z,2.40
2023-07-04T12:47:26.241Z,2.10
2023-07-04T12:50:31.501Z,3.50
2023-07-04T12:53:35.197Z,3.50
2023-07-04T12:56:42.415Z,3.20
2023-07-04T12:59:49.443Z,3.30
2023-07-04T13:02:52.746Z,5.00
2023-07-04T13:05:56.262Z,2.10
2023-07-04T13:09:00.430Z,2.00
2023-07-04T13:12:03.547Z,5.10
2023-07-04T13:15:12.832Z,4.70
2023-07-04T13:18:15.876Z,4.10
2023-07-04T13:21:27.454Z,3.60
2023-07-04T13:27:41.549Z,4.60
2023-07-04T13:32:58.853Z,6.10
2023-07-04T13:34:10.440Z,2.60
2023-07-04T13:37:13.525Z,2.60
2023-07-04T13:40:16.823Z,5.00
2023-07-04T13:46:25.590Z,3.20
2023-07-04T13:49:28.584Z,3.00
2023-07-04T13:52:33.702Z,4.50
2023-07-04T13:55:38.389Z,3.80
2023-07-04T13:58:41.694Z,3.60
2023-07-04T14:07:56.391Z,3.50
2023-07-04T14:11:08.848Z,3.40
2023-07-04T14:16:35.746Z,4.00
2023-07-04T14:18:31.874Z,3.60
2023-07-04T14:21:00.826Z,6.60
2023-07-04T14:24:07.163Z,3.70
2023-07-04T14:27:10.562Z,4.00
2023-07-04T14:30:14.116Z,3.10
2023-07-04T14:33:17.239Z,5.10
2023-07-04T14:36:20.392Z,3.10
2023-07-04T14:39:26.184Z,3.50
2023-07-04T14:42:31.746Z,5.20
2023-07-04T14:45:35.423Z,3.10
2023-07-04T14:48:39.308Z,3.80
2023-07-04T14:51:45.700Z,4.90
2023-07-04T14:54:48.882Z,4.80
2023-07-04T14:57:51.835Z,3.70
2023-07-04T15:01:01.407Z,2.50
2023-07-04T15:04:05.459Z,4.00
2023-07-04T15:07:08.487Z,4.80
2023-07-04T15:10:11.543Z,5.70
2023-07-04T15:13:14.698Z,3.20
2023-07-04T15:16:18.817Z,3.70
2023-07-04T15:19:25.996Z,3.60
2023-07-04T15:22:29.046Z,5.30
2023-07-04T15:25:32.100Z,5.20
2023-07-04T15:28:38.649Z,4.40
2023-07-04T15:31:41.739Z,4.50
2023-07-04T15:34:44.927Z,5.00
2023-07-04T15:37:48.031Z,4.40
2023-07-04T15:40:53.867Z,3.80
2023-07-04T15:43:57.000Z,4.00
2023-07-04T15:47:00.453Z,3.60
2023-07-04T15:50:03.656Z,5.00
2023-07-04T15:53:06.656Z,4.00
2023-07-04T15:56:12.949Z,4.20
2023-07-04T15:59:16.600Z,3.40
2023-07-04T16:02:19.654Z,4.30
2023-07-04T16:05:22.950Z,3.30
2023-07-04T16:08:27.540Z,5.70
2023-07-04T16:11:30.582Z,3.70
2023-07-04T16:14:33.524Z,2.90
2023-07-04T16:17:37.772Z,2.90
2023-07-04T16:20:45.639Z,4.20
2023-07-04T16:23:48.685Z,4.40
2023-07-04T16:26:51.925Z,4.60
2023-07-04T16:29:55.063Z,2.30
2023-07-04T16:32:58.072Z,4.70
2023-07-04T16:36:02.541Z,3.80
2023-07-04T16:39:05.512Z,3.20
2023-07-04T16:42:08.498Z,4.30
2023-07-04T16:45:11.526Z,3.60
2023-07-04T16:48:14.867Z,3.30
2023-07-04T16:51:17.805Z,6.90
2023-07-04T16:54:20.755Z,7.70
2023-07-04T16:57:23.744Z,4.80
2023-07-04T17:00:26.829Z,4.10
2023-07-04T17:03:31.505Z,3.60
2023-07-04T17:06:34.535Z,3.90
2023-07-04T17:09:37.516Z,4.60
2023-07-04T17:12:40.448Z,5.20
2023-07-04T17:15:43.500Z,4.00
2023-07-04T17:18:46.532Z,3.40
2023-07-04T17:21:49.891Z,6.00
2023-07-04T17:25:06.944Z,6.20
2023-07-04T17:28:16.403Z,4.20
2023-07-04T17:31:20.050Z,5.80
2023-07-04T17:34:24.495Z,3.70
2023-07-04T17:37:28.391Z,5.10
2023-07-04T17:40:32.432Z,5.50
2023-07-04T17:43:36.748Z,5.30
2023-07-04T17:46:40.023Z,4.00
2023-07-04T17:49:43.066Z,3.70
2023-07-04T17:52:47.242Z,3.80
2023-07-04T17:55:50.553Z,6.60
2023-07-04T17:58:54.946Z,4.80
2023-07-04T18:01:57.939Z,4.20
2023-07-04T18:05:00.921Z,4.00
2023-07-04T18:08:06.572Z,4.00
2023-07-04T18:11:22.752Z,5.10
2023-07-04T18:14:27.273Z,4.30
2023-07-04T18:17:31.291Z,4.80
2023-07-04T18:20:34.437Z,6.50
2023-07-04T18:23:37.710Z,9.90
2023-07-04T18:26:40.746Z,7.80
2023-07-04T18:29:43.708Z,8.50
2023-07-04T18:32:46.711Z,6.90
2023-07-04T18:35:50.381Z,4.00
2023-07-04T18:38:53.670Z,5.60
2023-07-04T18:41:56.703Z,6.00
2023-07-04T18:44:59.595Z,5.80
2023-07-04T18:48:02.696Z,10.50
2023-07-04T18:51:20.534Z,8.40
2023-07-04T18:57:29.306Z,6.60
2023-07-04T19:00:32.288Z,7.40
2023-07-04T19:03:35.754Z,9.00
2023-07-04T19:06:41.067Z,6.60
2023-07-04T19:09:44.242Z,9.20
2023-07-04T19:12:47.276Z,6.60
2023-07-04T19:15:59.749Z,6.70
2023-07-04T19:19:02.733Z,7.00
2023-07-04T19:22:08.444Z,7.90
2023-07-04T19:25:11.539Z,5.40
2023-07-04T19:28:17.125Z,6.00
2023-07-04T19:31:20.384Z,5.40
2023-07-04T19:34:24.956Z,10.20
2023-07-04T19:37:27.949Z,10.50
2023-07-04T19:40:30.872Z,9.10
2023-07-04T19:43:33.892Z,10.20
2023-07-04T19:46:37.086Z,7.80
2023-07-04T19:49:40.635Z,7.20
2023-07-04T19:52:43.727Z,7.20
2023-07-04T19:55:46.607Z,7.70
2023-07-04T19:58:51.194Z,8.10
2023-07-04T20:01:54.221Z,10.20
2023-07-04T20:04:57.324Z,7.40
2023-07-04T20:08:01.357Z,7.50
2023-07-04T20:11:04.691Z,7.40
2023-07-04T20:14:08.593Z,7.10
2023-07-04T20:17:11.557Z,10.00
2023-07-04T20:20:14.622Z,9.50
2023-07-04T20:23:17.789Z,7.40
2023-07-04T20:26:20.970Z,7.50
2023-07-04T20:29:24.102Z,8.80
2023-07-04T20:32:27.122Z,11.40
2023-07-04T20:35:30.873Z,7.90
2023-07-04T20:38:36.225Z,9.90
2023-07-04T20:41:39.142Z,11.20
2023-07-04T20:44:42.171Z,9.50
2023-07-04T20:47:45.279Z,9.70
2023-07-04T20:50:50.114Z,12.80
2023-07-04T20:53:53.385Z,11.40
2023-07-04T20:56:56.369Z,10.30
2023-07-04T20:59:59.368Z,15.50
2023-07-04T21:03:02.338Z,10.60
2023-07-04T21:06:06.601Z,9.60
2023-07-04T21:09:20.077Z,13.30
2023-07-04T21:12:23.264Z,14.80
2023-07-04T21:15:28.802Z,10.10
2023-07-04T21:18:33.662Z,11.50
2023-07-04T21:21:37.164Z,8.50
2023-07-04T21:24:40.076Z,11.30
2023-07-04T21:27:43.809Z,9.70
2023-07-04T21:30:49.274Z,9.70
2023-07-04T21:33:55.559Z,10.90
2023-07-04T21:36:58.535Z,11.40
2023-07-04T21:40:01.678Z,12.20
2023-07-04T21:43:06.241Z,15.00
2023-07-04T21:46:10.832Z,11.40
2023-07-04T21:49:13.774Z,10.20
2023-07-04T21:52:17.369Z,10.30
2023-07-04T21:55:20.373Z,9.70
2023-07-04T21:58:24.261Z,9.00
2023-07-04T22:01:27.338Z,10.50
2023-07-04T22:04:30.798Z,9.20
2023-07-04T22:07:33.839Z,8.80
2023-07-04T22:10:36.838Z,9.70
2023-07-04T22:13:43.446Z,10.30
2023-07-04T22:16:46.482Z,7.90
2023-07-04T22:19:49.609Z,9.40
2023-07-04T22:22:52.689Z,9.50
2023-07-04T22:25:56.446Z,10.90
2023-07-04T22:28:59.701Z,7.00
2023-07-04T22:32:03.120Z,8.90
2023-07-04T22:35:07.543Z,6.70
2023-07-04T22:38:10.531Z,8.90
2023-07-04T22:41:13.478Z,9.10
2023-07-04T22:44:17.271Z,9.70
2023-07-04T22:47:20.246Z,8.70
2023-07-04T22:50:23.287Z,12.10
2023-07-04T22:53:26.696Z,9.00
2023-07-04T22:56:29.686Z,10.80
2023-07-04T22:59:32.587Z,8.40
2023-07-04T23:02:35.836Z,9.10
2023-07-04T23:05:42.155Z,7.80
2023-07-04T23:08:45.298Z,8.40
2023-07-04T23:11:48.227Z,9.30
2023-07-04T23:14:51.184Z,7.60
2023-07-04T23:17:55.503Z,8.10
2023-07-04T23:20:58.562Z,10.00
2023-07-04T23:24:02.084Z,9.20
2023-07-04T23:27:05.683Z,9.20
2023-07-04T23:30:09.083Z,11.90
2023-07-04T23:33:11.984Z,10.20
2023-07-04T23:36:17.938Z,10.50
2023-07-04T23:39:20.866Z,8.60
2023-07-04T23:42:23.964Z,8.00
2023-07-04T23:45:27.073Z,7.90
2023-07-04T23:48:30.230Z,9.90
2023-07-04T23:51:33.143Z,9.80
2023-07-04T23:54:36.090Z,10.70
2023-07-04T23:57:39.012Z,10.20
